sensor_id;sensor_type;location;lat;lon;timestamp;P1;durP1;ratioP1;P2;durP2;ratioP2
74872;SDS011;68776;44.762;37.698;2023-03-23T00:00:00;19.55;;;7.63;;
74872;SDS011;68776;44.762;37.698;2023-03-23T00:01:01;19.63;;;7.55;;
74872;SDS011;68776;44.762;37.698;2023-03-23T00:02:03;16.08;;;7.53;;
74872;SDS011;68776;44.762;37.698;2023-03-23T00:03:05;18.85;;;8.38;;
74872;SDS011;68776;44.762;37.698;2023-03-23T00:04:05;20.52;;;7.30;;
74872;SDS011;68776;44.762;37.698;2023-03-23T00:05:08;21.83;;;8.48;;
74872;SDS011;68776;44.762;37.698;2023-03-23T00:06:09;22.02;;;7.85;;
74872;SDS011;68776;44.762;37.698;2023-03-23T00:07:10;19.93;;;7.93;;
74872;SDS011;68776;44.762;37.698;2023-03-23T00:08:12;19.52;;;7.40;;
74872;SDS011;68776;44.762;37.698;2023-03-23T00:09:15;20.20;;;7.97;;
74872;SDS011;68776;44.762;37.698;2023-03-23T00:10:17;25.02;;;7.57;;
74872;SDS011;68776;44.762;37.698;2023-03-23T00:11:20;18.17;;;7.70;;
74872;SDS011;68776;44.762;37.698;2023-03-23T00:12:23;20.98;;;8.07;;
74872;SDS011;68776;44.762;37.698;2023-03-23T00:13:33;19.95;;;7.85;;
74872;SDS011;68776;44.762;37.698;2023-03-23T00:14:34;19.42;;;7.13;;
74872;SDS011;68776;44.762;37.698;2023-03-23T00:15:41;18.05;;;6.75;;
74872;SDS011;68776;44.762;37.698;2023-03-23T00:17:45;26.40;;;7.50;;
74872;SDS011;68776;44.762;37.698;2023-03-23T00:18:49;18.80;;;7.03;;
74872;SDS011;68776;44.762;37.698;2023-03-23T00:19:54;21.17;;;7.27;;
74872;SDS011;68776;44.762;37.698;2023-03-23T00:20:56;27.20;;;8.73;;
74872;SDS011;68776;44.762;37.698;2023-03-23T00:21:57;21.50;;;8.32;;
74872;SDS011;68776;44.762;37.698;2023-03-23T00:23:01;19.17;;;8.30;;
74872;SDS011;68776;44.762;37.698;2023-03-23T00:25:07;21.08;;;7.53;;
74872;SDS011;68776;44.762;37.698;2023-03-23T00:26:09;23.58;;;8.57;;
74872;SDS011;68776;44.762;37.698;2023-03-23T00:30:24;22.25;;;8.48;;
74872;SDS011;68776;44.762;37.698;2023-03-23T00:31:25;22.27;;;8.47;;
74872;SDS011;68776;44.762;37.698;2023-03-23T00:32:36;22.00;;;8.98;;
74872;SDS011;68776;44.762;37.698;2023-03-23T00:33:37;20.63;;;9.27;;
74872;SDS011;68776;44.762;37.698;2023-03-23T00:34:41;20.98;;;8.80;;
74872;SDS011;68776;44.762;37.698;2023-03-23T00:35:44;22.40;;;9.30;;
74872;SDS011;68776;44.762;37.698;2023-03-23T00:36:54;21.73;;;9.63;;
74872;SDS011;68776;44.762;37.698;2023-03-23T00:37:58;20.58;;;8.90;;
74872;SDS011;68776;44.762;37.698;2023-03-23T00:39:01;21.80;;;9.35;;
74872;SDS011;68776;44.762;37.698;2023-03-23T00:40:03;23.83;;;9.60;;
74872;SDS011;68776;44.762;37.698;2023-03-23T00:41:11;23.70;;;9.70;;
74872;SDS011;68776;44.762;37.698;2023-03-23T00:42:15;22.38;;;9.43;;
74872;SDS011;68776;44.762;37.698;2023-03-23T00:43:17;24.00;;;10.13;;
74872;SDS011;68776;44.762;37.698;2023-03-23T00:44:19;25.60;;;9.75;;
74872;SDS011;68776;44.762;37.698;2023-03-23T00:45:23;25.67;;;9.45;;
74872;SDS011;68776;44.762;37.698;2023-03-23T00:46:25;23.58;;;9.63;;
74872;SDS011;68776;44.762;37.698;2023-03-23T00:47:26;21.70;;;9.77;;
74872;SDS011;68776;44.762;37.698;2023-03-23T00:48:28;22.38;;;9.80;;
74872;SDS011;68776;44.762;37.698;2023-03-23T00:49:29;23.65;;;10.55;;
74872;SDS011;68776;44.762;37.698;2023-03-23T00:50:31;21.45;;;9.65;;
74872;SDS011;68776;44.762;37.698;2023-03-23T00:51:32;23.88;;;9.40;;
74872;SDS011;68776;44.762;37.698;2023-03-23T00:52:33;23.83;;;9.93;;
74872;SDS011;68776;44.762;37.698;2023-03-23T00:53:34;25.27;;;9.70;;
74872;SDS011;68776;44.762;37.698;2023-03-23T00:54:35;21.77;;;9.63;;
74872;SDS011;68776;44.762;37.698;2023-03-23T00:55:39;23.02;;;9.82;;
74872;SDS011;68776;44.762;37.698;2023-03-23T00:56:42;23.57;;;10.33;;
74872;SDS011;68776;44.762;37.698;2023-03-23T00:57:43;22.52;;;9.75;;
74872;SDS011;68776;44.762;37.698;2023-03-23T00:58:44;19.83;;;9.63;;
74872;SDS011;68776;44.762;37.698;2023-03-23T00:59:45;20.17;;;9.52;;
74872;SDS011;68776;44.762;37.698;2023-03-23T01:00:48;21.58;;;9.40;;
74872;SDS011;68776;44.762;37.698;2023-03-23T01:01:49;25.53;;;10.27;;
74872;SDS011;68776;44.762;37.698;2023-03-23T01:02:52;21.42;;;10.00;;
74872;SDS011;68776;44.762;37.698;2023-03-23T01:03:53;24.95;;;9.80;;
74872;SDS011;68776;44.762;37.698;2023-03-23T01:05:01;22.02;;;10.10;;
74872;SDS011;68776;44.762;37.698;2023-03-23T01:06:04;24.08;;;10.07;;
74872;SDS011;68776;44.762;37.698;2023-03-23T01:07:16;21.92;;;9.75;;
74872;SDS011;68776;44.762;37.698;2023-03-23T01:08:18;25.55;;;9.90;;
74872;SDS011;68776;44.762;37.698;2023-03-23T01:09:19;22.17;;;9.73;;
74872;SDS011;68776;44.762;37.698;2023-03-23T01:10:23;29.58;;;10.43;;
74872;SDS011;68776;44.762;37.698;2023-03-23T01:11:26;25.88;;;9.90;;
74872;SDS011;68776;44.762;37.698;2023-03-23T01:12:27;24.52;;;9.90;;
74872;SDS011;68776;44.762;37.698;2023-03-23T01:13:30;23.67;;;11.13;;
74872;SDS011;68776;44.762;37.698;2023-03-23T01:14:31;25.90;;;10.40;;
74872;SDS011;68776;44.762;37.698;2023-03-23T01:15:32;23.25;;;10.23;;
74872;SDS011;68776;44.762;37.698;2023-03-23T01:16:33;23.80;;;10.32;;
74872;SDS011;68776;44.762;37.698;2023-03-23T01:17:34;23.80;;;10.70;;
74872;SDS011;68776;44.762;37.698;2023-03-23T01:18:36;21.55;;;10.20;;
74872;SDS011;68776;44.762;37.698;2023-03-23T01:19:37;25.70;;;9.97;;
74872;SDS011;68776;44.762;37.698;2023-03-23T01:20:38;23.83;;;10.73;;
74872;SDS011;68776;44.762;37.698;2023-03-23T01:21:40;22.88;;;9.95;;
74872;SDS011;68776;44.762;37.698;2023-03-23T01:22:41;22.07;;;10.23;;
74872;SDS011;68776;44.762;37.698;2023-03-23T01:23:43;23.08;;;10.75;;
74872;SDS011;68776;44.762;37.698;2023-03-23T01:24:44;25.33;;;10.57;;
74872;SDS011;68776;44.762;37.698;2023-03-23T01:25:46;25.95;;;10.93;;
74872;SDS011;68776;44.762;37.698;2023-03-23T01:26:47;24.20;;;10.43;;
74872;SDS011;68776;44.762;37.698;2023-03-23T01:27:48;24.70;;;10.33;;
74872;SDS011;68776;44.762;37.698;2023-03-23T01:28:49;23.20;;;10.20;;
74872;SDS011;68776;44.762;37.698;2023-03-23T01:29:50;26.27;;;10.82;;
74872;SDS011;68776;44.762;37.698;2023-03-23T01:30:51;26.35;;;10.98;;
74872;SDS011;68776;44.762;37.698;2023-03-23T01:31:52;26.20;;;10.98;;
74872;SDS011;68776;44.762;37.698;2023-03-23T01:32:54;24.85;;;11.23;;
74872;SDS011;68776;44.762;37.698;2023-03-23T01:33:56;22.38;;;10.80;;
74872;SDS011;68776;44.762;37.698;2023-03-23T01:34:57;26.20;;;10.65;;
74872;SDS011;68776;44.762;37.698;2023-03-23T01:36:02;26.08;;;11.15;;
74872;SDS011;68776;44.762;37.698;2023-03-23T01:37:08;25.05;;;10.50;;
74872;SDS011;68776;44.762;37.698;2023-03-23T01:38:09;25.20;;;10.68;;
74872;SDS011;68776;44.762;37.698;2023-03-23T01:39:10;23.08;;;11.00;;
74872;SDS011;68776;44.762;37.698;2023-03-23T01:40:11;24.95;;;10.77;;
74872;SDS011;68776;44.762;37.698;2023-03-23T01:41:13;23.90;;;10.37;;
74872;SDS011;68776;44.762;37.698;2023-03-23T01:42:15;22.35;;;9.70;;
74872;SDS011;68776;44.762;37.698;2023-03-23T01:43:17;25.60;;;11.60;;
74872;SDS011;68776;44.762;37.698;2023-03-23T01:45:36;22.23;;;10.38;;
74872;SDS011;68776;44.762;37.698;2023-03-23T01:46:37;26.38;;;11.50;;
74872;SDS011;68776;44.762;37.698;2023-03-23T01:47:38;28.33;;;11.18;;
74872;SDS011;68776;44.762;37.698;2023-03-23T01:48:40;24.05;;;11.13;;
74872;SDS011;68776;44.762;37.698;2023-03-23T01:49:42;23.20;;;11.60;;
74872;SDS011;68776;44.762;37.698;2023-03-23T01:50:56;24.27;;;11.43;;
74872;SDS011;68776;44.762;37.698;2023-03-23T01:52:19;25.33;;;11.43;;
74872;SDS011;68776;44.762;37.698;2023-03-23T01:53:35;24.30;;;11.20;;
74872;SDS011;68776;44.762;37.698;2023-03-23T01:54:38;23.85;;;11.18;;
74872;SDS011;68776;44.762;37.698;2023-03-23T01:55:42;25.95;;;11.57;;
74872;SDS011;68776;44.762;37.698;2023-03-23T01:57:02;25.13;;;10.52;;
74872;SDS011;68776;44.762;37.698;2023-03-23T01:58:09;26.50;;;11.93;;
74872;SDS011;68776;44.762;37.698;2023-03-23T01:59:11;27.00;;;11.30;;
74872;SDS011;68776;44.762;37.698;2023-03-23T02:00:17;24.92;;;11.00;;
74872;SDS011;68776;44.762;37.698;2023-03-23T02:01:23;25.60;;;10.95;;
74872;SDS011;68776;44.762;37.698;2023-03-23T02:02:25;25.00;;;10.98;;
74872;SDS011;68776;44.762;37.698;2023-03-23T02:03:30;23.40;;;10.80;;
74872;SDS011;68776;44.762;37.698;2023-03-23T02:04:33;21.20;;;9.95;;
74872;SDS011;68776;44.762;37.698;2023-03-23T02:05:38;22.45;;;10.02;;
74872;SDS011;68776;44.762;37.698;2023-03-23T02:06:49;26.67;;;10.63;;
74872;SDS011;68776;44.762;37.698;2023-03-23T02:07:54;24.75;;;11.32;;
74872;SDS011;68776;44.762;37.698;2023-03-23T02:09:03;25.58;;;11.30;;
74872;SDS011;68776;44.762;37.698;2023-03-23T02:10:06;21.92;;;10.75;;
74872;SDS011;68776;44.762;37.698;2023-03-23T02:11:16;23.67;;;10.82;;
74872;SDS011;68776;44.762;37.698;2023-03-23T02:12:19;22.52;;;10.82;;
74872;SDS011;68776;44.762;37.698;2023-03-23T02:13:22;24.92;;;10.77;;
74872;SDS011;68776;44.762;37.698;2023-03-23T02:14:24;22.95;;;10.88;;
74872;SDS011;68776;44.762;37.698;2023-03-23T02:15:28;23.15;;;10.52;;
74872;SDS011;68776;44.762;37.698;2023-03-23T02:18:27;25.00;;;11.80;;
74872;SDS011;68776;44.762;37.698;2023-03-23T02:24:57;26.77;;;11.75;;
74872;SDS011;68776;44.762;37.698;2023-03-23T02:26:27;25.98;;;11.30;;
74872;SDS011;68776;44.762;37.698;2023-03-23T02:28:48;26.77;;;12.02;;
74872;SDS011;68776;44.762;37.698;2023-03-23T02:30:31;25.70;;;11.60;;
74872;SDS011;68776;44.762;37.698;2023-03-23T02:34:50;25.13;;;11.98;;
74872;SDS011;68776;44.762;37.698;2023-03-23T02:35:52;28.60;;;11.73;;
74872;SDS011;68776;44.762;37.698;2023-03-23T02:37:08;22.80;;;10.83;;
74872;SDS011;68776;44.762;37.698;2023-03-23T02:38:13;26.52;;;12.13;;
74872;SDS011;68776;44.762;37.698;2023-03-23T02:39:24;25.13;;;11.32;;
74872;SDS011;68776;44.762;37.698;2023-03-23T02:40:35;28.15;;;11.75;;
74872;SDS011;68776;44.762;37.698;2023-03-23T02:41:43;23.92;;;11.65;;
74872;SDS011;68776;44.762;37.698;2023-03-23T02:42:50;25.58;;;11.05;;
74872;SDS011;68776;44.762;37.698;2023-03-23T02:43:54;26.23;;;12.02;;
74872;SDS011;68776;44.762;37.698;2023-03-23T02:44:56;28.88;;;12.40;;
74872;SDS011;68776;44.762;37.698;2023-03-23T02:45:59;23.95;;;11.50;;
74872;SDS011;68776;44.762;37.698;2023-03-23T02:47:04;27.73;;;12.38;;
74872;SDS011;68776;44.762;37.698;2023-03-23T02:48:08;26.23;;;11.63;;
74872;SDS011;68776;44.762;37.698;2023-03-23T02:49:11;25.38;;;11.32;;
74872;SDS011;68776;44.762;37.698;2023-03-23T02:50:16;26.17;;;11.52;;
74872;SDS011;68776;44.762;37.698;2023-03-23T02:51:20;21.75;;;10.30;;
74872;SDS011;68776;44.762;37.698;2023-03-23T02:52:24;24.92;;;11.13;;
74872;SDS011;68776;44.762;37.698;2023-03-23T02:53:28;27.23;;;11.13;;
74872;SDS011;68776;44.762;37.698;2023-03-23T02:54:33;24.27;;;11.75;;
74872;SDS011;68776;44.762;37.698;2023-03-23T02:55:36;29.48;;;12.18;;
74872;SDS011;68776;44.762;37.698;2023-03-23T02:56:43;24.83;;;11.73;;
74872;SDS011;68776;44.762;37.698;2023-03-23T02:57:54;26.70;;;12.57;;
74872;SDS011;68776;44.762;37.698;2023-03-23T02:58:55;26.75;;;11.88;;
74872;SDS011;68776;44.762;37.698;2023-03-23T02:59:57;25.27;;;10.95;;
74872;SDS011;68776;44.762;37.698;2023-03-23T03:00:58;23.17;;;10.38;;
74872;SDS011;68776;44.762;37.698;2023-03-23T03:02:02;23.20;;;10.90;;
74872;SDS011;68776;44.762;37.698;2023-03-23T03:03:09;24.75;;;12.02;;
74872;SDS011;68776;44.762;37.698;2023-03-23T03:04:15;26.80;;;11.57;;
74872;SDS011;68776;44.762;37.698;2023-03-23T03:08:54;25.45;;;11.25;;
74872;SDS011;68776;44.762;37.698;2023-03-23T03:10:45;24.38;;;11.07;;
74872;SDS011;68776;44.762;37.698;2023-03-23T03:11:28;27.65;;;12.60;;
74872;SDS011;68776;44.762;37.698;2023-03-23T03:13:14;26.65;;;11.95;;
74872;SDS011;68776;44.762;37.698;2023-03-23T03:14:02;24.10;;;10.70;;
74872;SDS011;68776;44.762;37.698;2023-03-23T03:15:11;27.55;;;11.95;;
74872;SDS011;68776;44.762;37.698;2023-03-23T03:17:39;25.38;;;11.13;;
74872;SDS011;68776;44.762;37.698;2023-03-23T03:19:49;25.48;;;12.30;;
74872;SDS011;68776;44.762;37.698;2023-03-23T03:20:54;25.92;;;12.10;;
74872;SDS011;68776;44.762;37.698;2023-03-23T03:21:59;25.25;;;12.30;;
74872;SDS011;68776;44.762;37.698;2023-03-23T03:23:11;23.67;;;11.93;;
74872;SDS011;68776;44.762;37.698;2023-03-23T03:24:17;25.92;;;11.30;;
74872;SDS011;68776;44.762;37.698;2023-03-23T03:25:24;24.45;;;11.38;;
74872;SDS011;68776;44.762;37.698;2023-03-23T03:26:30;24.50;;;11.63;;
74872;SDS011;68776;44.762;37.698;2023-03-23T03:27:48;26.43;;;11.83;;
74872;SDS011;68776;44.762;37.698;2023-03-23T03:28:54;25.05;;;11.90;;
74872;SDS011;68776;44.762;37.698;2023-03-23T03:29:56;24.48;;;12.13;;
74872;SDS011;68776;44.762;37.698;2023-03-23T03:31:00;27.27;;;12.13;;
74872;SDS011;68776;44.762;37.698;2023-03-23T03:32:04;27.83;;;12.55;;
74872;SDS011;68776;44.762;37.698;2023-03-23T03:33:08;27.90;;;11.73;;
74872;SDS011;68776;44.762;37.698;2023-03-23T03:34:09;25.88;;;11.65;;
74872;SDS011;68776;44.762;37.698;2023-03-23T03:35:10;24.75;;;11.45;;
74872;SDS011;68776;44.762;37.698;2023-03-23T03:36:20;27.48;;;11.52;;
74872;SDS011;68776;44.762;37.698;2023-03-23T03:37:24;25.45;;;12.02;;
74872;SDS011;68776;44.762;37.698;2023-03-23T03:38:26;25.25;;;11.50;;
74872;SDS011;68776;44.762;37.698;2023-03-23T03:39:28;25.75;;;12.00;;
74872;SDS011;68776;44.762;37.698;2023-03-23T03:40:29;23.75;;;11.10;;
74872;SDS011;68776;44.762;37.698;2023-03-23T03:41:30;29.45;;;11.80;;
74872;SDS011;68776;44.762;37.698;2023-03-23T03:42:31;27.67;;;11.93;;
74872;SDS011;68776;44.762;37.698;2023-03-23T03:43:32;24.02;;;11.18;;
74872;SDS011;68776;44.762;37.698;2023-03-23T03:44:33;27.23;;;11.93;;
74872;SDS011;68776;44.762;37.698;2023-03-23T03:45:35;27.60;;;12.32;;
74872;SDS011;68776;44.762;37.698;2023-03-23T03:46:36;27.95;;;12.48;;
74872;SDS011;68776;44.762;37.698;2023-03-23T03:47:38;26.17;;;12.13;;
74872;SDS011;68776;44.762;37.698;2023-03-23T03:48:39;30.08;;;11.90;;
74872;SDS011;68776;44.762;37.698;2023-03-23T03:49:40;27.08;;;11.80;;
74872;SDS011;68776;44.762;37.698;2023-03-23T03:50:41;25.30;;;11.73;;
74872;SDS011;68776;44.762;37.698;2023-03-23T03:51:42;28.25;;;11.63;;
74872;SDS011;68776;44.762;37.698;2023-03-23T03:52:51;25.92;;;11.57;;
74872;SDS011;68776;44.762;37.698;2023-03-23T03:53:53;25.83;;;11.73;;
74872;SDS011;68776;44.762;37.698;2023-03-23T03:54:54;25.85;;;11.60;;
74872;SDS011;68776;44.762;37.698;2023-03-23T03:55:56;27.73;;;11.60;;
74872;SDS011;68776;44.762;37.698;2023-03-23T03:57:03;25.95;;;11.40;;
74872;SDS011;68776;44.762;37.698;2023-03-23T03:58:25;26.40;;;11.80;;
74872;SDS011;68776;44.762;37.698;2023-03-23T03:59:45;25.52;;;11.80;;
74872;SDS011;68776;44.762;37.698;2023-03-23T04:01:10;25.85;;;11.40;;
74872;SDS011;68776;44.762;37.698;2023-03-23T04:02:12;26.77;;;11.20;;
74872;SDS011;68776;44.762;37.698;2023-03-23T04:03:17;23.15;;;11.07;;
74872;SDS011;68776;44.762;37.698;2023-03-23T04:04:29;23.98;;;10.98;;
74872;SDS011;68776;44.762;37.698;2023-03-23T04:05:30;27.17;;;12.02;;
74872;SDS011;68776;44.762;37.698;2023-03-23T04:06:31;27.98;;;11.57;;
74872;SDS011;68776;44.762;37.698;2023-03-23T04:07:34;28.27;;;13.00;;
74872;SDS011;68776;44.762;37.698;2023-03-23T04:08:38;29.60;;;12.75;;
74872;SDS011;68776;44.762;37.698;2023-03-23T04:09:44;26.88;;;11.30;;
74872;SDS011;68776;44.762;37.698;2023-03-23T04:10:51;26.20;;;11.80;;
74872;SDS011;68776;44.762;37.698;2023-03-23T04:11:54;25.27;;;11.02;;
74872;SDS011;68776;44.762;37.698;2023-03-23T04:13:18;26.80;;;12.55;;
74872;SDS011;68776;44.762;37.698;2023-03-23T04:14:19;24.92;;;11.40;;
74872;SDS011;68776;44.762;37.698;2023-03-23T04:15:20;24.92;;;11.13;;
74872;SDS011;68776;44.762;37.698;2023-03-23T04:16:22;26.15;;;12.07;;
74872;SDS011;68776;44.762;37.698;2023-03-23T04:17:23;23.85;;;10.90;;
74872;SDS011;68776;44.762;37.698;2023-03-23T04:18:26;23.83;;;10.98;;
74872;SDS011;68776;44.762;37.698;2023-03-23T04:19:28;27.38;;;11.23;;
74872;SDS011;68776;44.762;37.698;2023-03-23T04:20:34;26.35;;;10.98;;
74872;SDS011;68776;44.762;37.698;2023-03-23T04:21:36;26.90;;;11.77;;
74872;SDS011;68776;44.762;37.698;2023-03-23T04:22:37;23.85;;;10.57;;
74872;SDS011;68776;44.762;37.698;2023-03-23T04:23:39;22.35;;;10.90;;
74872;SDS011;68776;44.762;37.698;2023-03-23T04:24:41;23.33;;;10.55;;
74872;SDS011;68776;44.762;37.698;2023-03-23T04:25:47;23.55;;;10.75;;
74872;SDS011;68776;44.762;37.698;2023-03-23T04:26:50;28.63;;;10.85;;
74872;SDS011;68776;44.762;37.698;2023-03-23T04:28:00;25.80;;;11.07;;
74872;SDS011;68776;44.762;37.698;2023-03-23T04:29:07;27.13;;;10.65;;
74872;SDS011;68776;44.762;37.698;2023-03-23T04:30:09;24.48;;;9.90;;
74872;SDS011;68776;44.762;37.698;2023-03-23T04:31:22;28.13;;;10.82;;
74872;SDS011;68776;44.762;37.698;2023-03-23T04:32:33;30.45;;;12.43;;
74872;SDS011;68776;44.762;37.698;2023-03-23T04:33:35;25.80;;;11.27;;
74872;SDS011;68776;44.762;37.698;2023-03-23T04:34:37;29.45;;;12.30;;
74872;SDS011;68776;44.762;37.698;2023-03-23T04:35:38;29.98;;;11.98;;
74872;SDS011;68776;44.762;37.698;2023-03-23T04:37:05;34.70;;;12.13;;
74872;SDS011;68776;44.762;37.698;2023-03-23T04:38:07;31.17;;;12.30;;
74872;SDS011;68776;44.762;37.698;2023-03-23T04:39:09;29.58;;;11.88;;
74872;SDS011;68776;44.762;37.698;2023-03-23T04:40:12;30.85;;;11.25;;
74872;SDS011;68776;44.762;37.698;2023-03-23T04:41:19;28.63;;;11.05;;
74872;SDS011;68776;44.762;37.698;2023-03-23T04:44:08;26.60;;;10.30;;
74872;SDS011;68776;44.762;37.698;2023-03-23T04:52:03;23.10;;;8.98;;
74872;SDS011;68776;44.762;37.698;2023-03-23T04:53:18;26.85;;;10.52;;
74872;SDS011;68776;44.762;37.698;2023-03-23T04:54:19;27.30;;;10.65;;
74872;SDS011;68776;44.762;37.698;2023-03-23T04:55:25;24.80;;;9.18;;
74872;SDS011;68776;44.762;37.698;2023-03-23T04:56:30;28.38;;;10.38;;
74872;SDS011;68776;44.762;37.698;2023-03-23T04:57:37;26.90;;;9.70;;
74872;SDS011;68776;44.762;37.698;2023-03-23T04:58:56;25.73;;;9.45;;
74872;SDS011;68776;44.762;37.698;2023-03-23T05:00:07;26.10;;;9.05;;
74872;SDS011;68776;44.762;37.698;2023-03-23T05:01:14;24.77;;;8.90;;
74872;SDS011;68776;44.762;37.698;2023-03-23T05:02:25;25.10;;;9.80;;
74872;SDS011;68776;44.762;37.698;2023-03-23T05:03:31;23.25;;;9.00;;
74872;SDS011;68776;44.762;37.698;2023-03-23T05:04:32;23.75;;;10.07;;
74872;SDS011;68776;44.762;37.698;2023-03-23T05:05:46;20.23;;;8.77;;
74872;SDS011;68776;44.762;37.698;2023-03-23T05:06:52;22.65;;;9.90;;
74872;SDS011;68776;44.762;37.698;2023-03-23T05:07:59;28.33;;;9.63;;
74872;SDS011;68776;44.762;37.698;2023-03-23T05:09:03;24.00;;;9.15;;
74872;SDS011;68776;44.762;37.698;2023-03-23T05:10:06;20.65;;;8.40;;
74872;SDS011;68776;44.762;37.698;2023-03-23T05:11:09;19.53;;;9.43;;
74872;SDS011;68776;44.762;37.698;2023-03-23T05:12:14;23.17;;;9.10;;
74872;SDS011;68776;44.762;37.698;2023-03-23T05:13:41;22.65;;;9.25;;
74872;SDS011;68776;44.762;37.698;2023-03-23T05:14:45;22.55;;;8.60;;
74872;SDS011;68776;44.762;37.698;2023-03-23T05:15:50;23.83;;;9.05;;
74872;SDS011;68776;44.762;37.698;2023-03-23T05:16:51;29.77;;;9.63;;
74872;SDS011;68776;44.762;37.698;2023-03-23T05:17:53;27.63;;;9.10;;
74872;SDS011;68776;44.762;37.698;2023-03-23T05:18:56;26.98;;;9.15;;
74872;SDS011;68776;44.762;37.698;2023-03-23T05:20:02;24.00;;;9.25;;
74872;SDS011;68776;44.762;37.698;2023-03-23T05:21:28;22.13;;;8.80;;
74872;SDS011;68776;44.762;37.698;2023-03-23T05:22:31;24.37;;;8.53;;
74872;SDS011;68776;44.762;37.698;2023-03-23T05:23:33;25.25;;;9.70;;
74872;SDS011;68776;44.762;37.698;2023-03-23T05:24:47;27.52;;;10.88;;
74872;SDS011;68776;44.762;37.698;2023-03-23T05:25:54;28.35;;;10.73;;
74872;SDS011;68776;44.762;37.698;2023-03-23T05:26:57;30.55;;;9.48;;
74872;SDS011;68776;44.762;37.698;2023-03-23T05:28:09;27.13;;;9.30;;
74872;SDS011;68776;44.762;37.698;2023-03-23T05:29:26;23.92;;;8.93;;
74872;SDS011;68776;44.762;37.698;2023-03-23T05:30:32;29.70;;;9.50;;
74872;SDS011;68776;44.762;37.698;2023-03-23T05:31:34;22.45;;;9.13;;
74872;SDS011;68776;44.762;37.698;2023-03-23T05:32:35;24.70;;;8.73;;
74872;SDS011;68776;44.762;37.698;2023-03-23T05:33:53;20.73;;;7.93;;
74872;SDS011;68776;44.762;37.698;2023-03-23T05:35:09;22.73;;;8.15;;
74872;SDS011;68776;44.762;37.698;2023-03-23T05:36:12;24.13;;;8.05;;
74872;SDS011;68776;44.762;37.698;2023-03-23T05:37:39;21.65;;;8.55;;
74872;SDS011;68776;44.762;37.698;2023-03-23T05:38:43;22.40;;;8.25;;
74872;SDS011;68776;44.762;37.698;2023-03-23T05:39:49;20.33;;;8.68;;
74872;SDS011;68776;44.762;37.698;2023-03-23T05:41:14;25.65;;;8.68;;
74872;SDS011;68776;44.762;37.698;2023-03-23T05:42:16;29.77;;;8.63;;
74872;SDS011;68776;44.762;37.698;2023-03-23T05:43:37;22.20;;;8.98;;
74872;SDS011;68776;44.762;37.698;2023-03-23T05:45:11;19.33;;;8.10;;
74872;SDS011;68776;44.762;37.698;2023-03-23T05:46:12;21.77;;;8.50;;
74872;SDS011;68776;44.762;37.698;2023-03-23T05:47:16;20.92;;;8.57;;
74872;SDS011;68776;44.762;37.698;2023-03-23T05:48:24;24.27;;;8.40;;
74872;SDS011;68776;44.762;37.698;2023-03-23T05:49:25;27.75;;;9.48;;
74872;SDS011;68776;44.762;37.698;2023-03-23T05:50:28;19.98;;;8.35;;
74872;SDS011;68776;44.762;37.698;2023-03-23T05:51:28;24.83;;;8.48;;
74872;SDS011;68776;44.762;37.698;2023-03-23T05:52:30;24.02;;;7.97;;
74872;SDS011;68776;44.762;37.698;2023-03-23T05:53:33;21.85;;;8.70;;
74872;SDS011;68776;44.762;37.698;2023-03-23T05:54:35;27.17;;;8.15;;
74872;SDS011;68776;44.762;37.698;2023-03-23T05:55:37;21.97;;;7.60;;
74872;SDS011;68776;44.762;37.698;2023-03-23T05:57:01;23.38;;;8.23;;
74872;SDS011;68776;44.762;37.698;2023-03-23T05:58:25;20.45;;;9.00;;
74872;SDS011;68776;44.762;37.698;2023-03-23T05:59:26;20.65;;;8.55;;
74872;SDS011;68776;44.762;37.698;2023-03-23T06:00:29;26.27;;;8.63;;
74872;SDS011;68776;44.762;37.698;2023-03-23T06:01:42;19.63;;;8.70;;
74872;SDS011;68776;44.762;37.698;2023-03-23T06:02:43;22.67;;;9.00;;
74872;SDS011;68776;44.762;37.698;2023-03-23T06:03:50;16.30;;;7.53;;
74872;SDS011;68776;44.762;37.698;2023-03-23T06:04:59;20.85;;;8.23;;
74872;SDS011;68776;44.762;37.698;2023-03-23T06:06:04;19.75;;;7.88;;
74872;SDS011;68776;44.762;37.698;2023-03-23T06:07:18;21.10;;;8.03;;
74872;SDS011;68776;44.762;37.698;2023-03-23T06:08:39;18.02;;;8.23;;
74872;SDS011;68776;44.762;37.698;2023-03-23T06:09:41;19.35;;;8.38;;
74872;SDS011;68776;44.762;37.698;2023-03-23T06:11:08;20.70;;;8.18;;
74872;SDS011;68776;44.762;37.698;2023-03-23T06:12:16;25.80;;;9.35;;
74872;SDS011;68776;44.762;37.698;2023-03-23T06:13:32;20.02;;;8.25;;
74872;SDS011;68776;44.762;37.698;2023-03-23T06:14:39;23.63;;;8.63;;
74872;SDS011;68776;44.762;37.698;2023-03-23T06:15:41;23.83;;;8.95;;
74872;SDS011;68776;44.762;37.698;2023-03-23T06:16:54;20.42;;;8.23;;
74872;SDS011;68776;44.762;37.698;2023-03-23T06:17:57;24.98;;;9.43;;
74872;SDS011;68776;44.762;37.698;2023-03-23T06:19:03;22.80;;;8.87;;
74872;SDS011;68776;44.762;37.698;2023-03-23T06:20:07;22.67;;;8.48;;
74872;SDS011;68776;44.762;37.698;2023-03-23T06:21:11;22.60;;;8.77;;
74872;SDS011;68776;44.762;37.698;2023-03-23T06:22:39;18.70;;;8.82;;
74872;SDS011;68776;44.762;37.698;2023-03-23T06:23:43;20.92;;;8.52;;
74872;SDS011;68776;44.762;37.698;2023-03-23T06:24:45;21.95;;;8.48;;
74872;SDS011;68776;44.762;37.698;2023-03-23T06:25:49;22.63;;;9.00;;
74872;SDS011;68776;44.762;37.698;2023-03-23T06:26:50;23.05;;;9.27;;
74872;SDS011;68776;44.762;37.698;2023-03-23T06:27:54;22.38;;;9.57;;
74872;SDS011;68776;44.762;37.698;2023-03-23T06:28:56;20.30;;;8.57;;
74872;SDS011;68776;44.762;37.698;2023-03-23T06:29:58;26.97;;;9.10;;
74872;SDS011;68776;44.762;37.698;2023-03-23T06:31:00;22.92;;;9.07;;
74872;SDS011;68776;44.762;37.698;2023-03-23T06:32:07;23.35;;;10.25;;
74872;SDS011;68776;44.762;37.698;2023-03-23T06:33:10;22.33;;;10.18;;
74872;SDS011;68776;44.762;37.698;2023-03-23T06:34:32;26.30;;;8.85;;
74872;SDS011;68776;44.762;37.698;2023-03-23T06:35:51;31.75;;;9.98;;
74872;SDS011;68776;44.762;37.698;2023-03-23T06:37:15;19.38;;;8.57;;
74872;SDS011;68776;44.762;37.698;2023-03-23T06:38:29;23.58;;;8.98;;
74872;SDS011;68776;44.762;37.698;2023-03-23T06:39:31;20.55;;;9.10;;
74872;SDS011;68776;44.762;37.698;2023-03-23T06:40:58;23.63;;;8.93;;
74872;SDS011;68776;44.762;37.698;2023-03-23T06:42:00;23.63;;;8.40;;
74872;SDS011;68776;44.762;37.698;2023-03-23T06:43:05;20.45;;;8.80;;
74872;SDS011;68776;44.762;37.698;2023-03-23T06:44:27;24.65;;;9.07;;
74872;SDS011;68776;44.762;37.698;2023-03-23T06:45:29;22.35;;;9.27;;
74872;SDS011;68776;44.762;37.698;2023-03-23T06:47:04;20.92;;;8.35;;
74872;SDS011;68776;44.762;37.698;2023-03-23T06:48:09;20.90;;;8.30;;
74872;SDS011;68776;44.762;37.698;2023-03-23T06:49:11;21.33;;;9.18;;
74872;SDS011;68776;44.762;37.698;2023-03-23T06:50:21;30.08;;;9.93;;
74872;SDS011;68776;44.762;37.698;2023-03-23T06:51:22;22.17;;;8.90;;
74872;SDS011;68776;44.762;37.698;2023-03-23T06:52:26;20.70;;;8.27;;
74872;SDS011;68776;44.762;37.698;2023-03-23T06:53:28;23.13;;;10.00;;
74872;SDS011;68776;44.762;37.698;2023-03-23T06:54:31;21.08;;;8.77;;